createdAt,value
2018-02-01T00:01:41.821Z,87.67
2018-02-01T00:04:09.407Z,87.79
2018-02-01T00:06:36.958Z,87.84
2018-02-01T00:09:04.800Z,87.95
2018-02-01T00:11:32.391Z,88.39
2018-02-01T00:14:00.143Z,88.42
2018-02-01T00:16:27.747Z,88.30
2018-02-01T00:18:55.324Z,88.48
2018-02-01T00:21:22.902Z,88.77
2018-02-01T00:23:50.503Z,88.62
2018-02-01T00:26:18.066Z,88.42
2018-02-01T00:28:45.636Z,88.48
2018-02-01T00:31:13.358Z,88.30
2018-02-01T00:33:41.017Z,88.43
2018-02-01T00:36:08.689Z,88.53
2018-02-01T00:38:36.326Z,88.72
2018-02-01T00:41:03.908Z,88.46
2018-02-01T00:43:31.705Z,88.42
2018-02-01T00:45:59.322Z,88.65
2018-02-01T00:48:26.901Z,88.72
2018-02-01T00:50:54.650Z,88.82
2018-02-01T00:53:22.279Z,88.72
2018-02-01T00:55:49.841Z,88.79
2018-02-01T00:58:17.411Z,88.68
2018-02-01T01:00:45.028Z,88.65
2018-02-01T01:03:12.774Z,88.99
2018-02-01T01:05:40.343Z,88.96
2018-02-01T01:08:08.064Z,88.96
2018-02-01T01:10:35.659Z,88.92
2018-02-01T01:13:03.407Z,89.00
2018-02-01T01:15:30.991Z,89.41
2018-02-01T01:17:58.548Z,89.43
2018-02-01T01:20:26.128Z,89.22
2018-02-01T01:22:53.720Z,88.95
2018-02-01T01:25:21.491Z,88.85
2018-02-01T01:27:49.174Z,88.83
2018-02-01T01:30:16.792Z,88.89
2018-02-01T01:32:44.359Z,88.98
2018-02-01T01:35:12.164Z,88.92
2018-02-01T01:37:39.772Z,88.93
2018-02-01T01:40:07.339Z,88.88
2018-02-01T01:42:34.915Z,88.92
2018-02-01T01:45:02.598Z,89.10
2018-02-01T01:47:30.164Z,89.32
2018-02-01T01:49:57.735Z,89.17
2018-02-01T01:52:25.337Z,89.29
2018-02-01T01:54:52.889Z,89.16
2018-02-01T01:57:20.454Z,89.07
2018-02-01T01:59:48.059Z,89.28
2018-02-01T02:02:15.623Z,89.51
2018-02-01T02:04:43.307Z,89.70
2018-02-01T02:07:10.907Z,89.59
2018-02-01T02:09:38.467Z,89.60
2018-02-01T02:12:06.083Z,89.49
2018-02-01T02:14:33.682Z,89.21
2018-02-01T02:17:01.236Z,89.38
2018-02-01T02:19:28.814Z,89.69
2018-02-01T02:21:56.531Z,89.68
2018-02-01T02:24:24.125Z,90.03
2018-02-01T02:26:51.833Z,89.83
2018-02-01T02:29:19.450Z,89.84
2018-02-01T02:31:47.972Z,89.88
2018-02-01T02:34:15.542Z,90.06
2018-02-01T02:36:43.307Z,90.00
2018-02-01T02:39:10.868Z,89.69
2018-02-01T02:41:38.471Z,89.77
2018-02-01T02:44:06.093Z,89.85
2018-02-01T02:46:33.671Z,89.83
2018-02-01T02:49:01.245Z,89.76
2018-02-01T02:51:29.080Z,90.01
2018-02-01T02:53:56.642Z,89.95
2018-02-01T02:56:24.217Z,89.95
2018-02-01T02:58:51.821Z,89.91
2018-02-01T03:01:19.403Z,89.94
2018-02-01T03:03:46.968Z,89.96
2018-02-01T03:06:14.656Z,89.93
2018-02-01T03:08:42.320Z,89.80
2018-02-01T03:11:09.967Z,89.95
2018-02-01T03:13:37.569Z,89.81
2018-02-01T03:16:05.134Z,89.84
2018-02-01T03:18:32.686Z,89.68
2018-02-01T03:21:00.283Z,89.77
2018-02-01T03:23:27.886Z,89.94
2018-02-01T03:25:55.440Z,89.97
2018-02-01T03:28:23.039Z,90.08
2018-02-01T03:30:50.642Z,90.17
2018-02-01T03:33:18.228Z,90.14
2018-02-01T03:35:45.825Z,90.08
2018-02-01T03:38:13.432Z,90.05
2018-02-01T03:40:41.111Z,90.13
2018-02-01T03:43:08.760Z,89.97
2018-02-01T03:45:36.332Z,89.94
2018-02-01T03:48:03.919Z,90.04
2018-02-01T03:50:31.513Z,89.99
2018-02-01T03:52:59.087Z,89.95
2018-02-01T03:55:26.685Z,90.11
2018-02-01T03:57:54.300Z,90.36
2018-02-01T04:00:21.983Z,90.76
2018-02-01T04:02:49.634Z,90.59
2018-02-01T04:05:17.229Z,90.59
2018-02-01T04:07:44.985Z,90.54
2018-02-01T04:10:12.686Z,90.69
2018-02-01T04:12:40.310Z,90.89
2018-02-01T04:15:07.904Z,90.85
2018-02-01T04:17:35.472Z,90.33
2018-02-01T04:20:03.086Z,90.20
2018-02-01T04:22:30.730Z,90.07
2018-02-01T04:24:58.580Z,89.98
2018-02-01T04:27:26.261Z,90.10
2018-02-01T04:29:53.819Z,89.93
2018-02-01T04:32:21.386Z,90.16
2018-02-01T04:34:48.995Z,90.28
2018-02-01T04:37:16.701Z,90.62
2018-02-01T04:39:44.266Z,90.64
2018-02-01T04:42:11.871Z,90.61
2018-02-01T04:44:39.472Z,90.68
2018-02-01T04:47:07.050Z,90.78
2018-02-01T04:49:34.661Z,90.88
2018-02-01T04:52:02.258Z,90.68
2018-02-01T04:54:29.866Z,90.98
2018-02-01T04:56:57.482Z,90.87
2018-02-01T04:59:25.282Z,90.77
2018-02-01T05:01:52.849Z,90.85
2018-02-01T05:04:20.451Z,91.02
2018-02-01T05:06:48.043Z,91.02
2018-02-01T05:09:15.707Z,90.88
2018-02-01T05:11:43.334Z,90.75
2018-02-01T05:14:10.921Z,90.77
2018-02-01T05:16:38.508Z,90.50
2018-02-01T05:19:06.129Z,90.42
2018-02-01T05:21:33.694Z,90.45
2018-02-01T05:24:01.264Z,90.33
2018-02-01T05:26:28.871Z,90.27
2018-02-01T05:28:56.448Z,90.21
2018-02-01T05:31:24.018Z,90.29
2018-02-01T05:33:51.637Z,89.89
2018-02-01T05:36:19.395Z,89.73
2018-02-01T05:38:46.969Z,89.90
2018-02-01T05:41:14.626Z,89.70
2018-02-01T05:43:42.164Z,89.22
2018-02-01T05:46:09.704Z,89.21
2018-02-01T05:48:37.312Z,89.26
2018-02-01T05:51:04.907Z,89.23
2018-02-01T05:53:32.607Z,88.94
2018-02-01T05:56:00.220Z,88.35
2018-02-01T05:58:27.933Z,88.41
2018-02-01T06:00:55.600Z,88.28
2018-02-01T06:03:23.269Z,88.18
2018-02-01T06:05:50.886Z,87.76
2018-02-01T06:08:18.466Z,87.60
2018-02-01T06:10:46.072Z,87.45
2018-02-01T06:13:13.700Z,87.74
2018-02-01T06:15:41.266Z,85.42
2018-02-01T06:18:08.865Z,76.64
2018-02-01T06:20:36.431Z,72.34
2018-02-01T06:23:04.168Z,74.56
2018-02-01T06:25:31.766Z,62.93
2018-02-01T06:27:59.554Z,64.53
2018-02-01T06:30:27.336Z,57.96
2018-02-01T06:32:54.926Z,53.32
2018-02-01T06:35:22.490Z,52.46
2018-02-01T06:37:50.425Z,53.25
2018-02-01T06:40:18.039Z,52.55
2018-02-01T06:42:45.621Z,52.01
2018-02-01T06:45:13.183Z,48.85
2018-02-01T06:47:40.800Z,48.59
2018-02-01T06:50:08.367Z,48.36
2018-02-01T06:52:35.930Z,48.70
2018-02-01T06:55:03.558Z,46.51
2018-02-01T06:57:31.123Z,46.18
2018-02-01T06:59:58.872Z,46.46
2018-02-01T07:02:26.548Z,44.50
2018-02-01T07:04:54.120Z,43.41
2018-02-01T07:07:21.687Z,44.98
2018-02-01T07:09:49.526Z,43.69
2018-02-01T07:12:17.109Z,43.16
2018-02-01T07:14:44.680Z,42.34
2018-02-01T07:17:12.283Z,41.45
2018-02-01T07:19:39.848Z,41.22
2018-02-01T07:22:07.684Z,40.26
2018-02-01T07:24:35.523Z,40.02
2018-02-01T07:27:03.103Z,37.30
2018-02-01T07:29:30.821Z,37.93
2018-02-01T07:31:58.450Z,39.35
2018-02-01T07:34:26.023Z,37.20
2018-02-01T07:36:53.597Z,38.57
2018-02-01T07:39:21.191Z,37.62
2018-02-01T07:41:48.776Z,35.50
2018-02-01T07:44:16.398Z,36.37
2018-02-01T07:46:44.056Z,36.23
2018-02-01T07:49:11.790Z,37.20
2018-02-01T07:51:39.575Z,37.63
2018-02-01T07:54:07.249Z,36.55
2018-02-01T07:56:34.825Z,36.12
2018-02-01T07:59:02.424Z,36.55
2018-02-01T08:01:30.053Z,36.16
2018-02-01T08:03:57.707Z,36.38
2018-02-01T08:06:25.307Z,35.06
2018-02-01T08:08:53.025Z,35.72
2018-02-01T08:13:53.461Z,34.01
2018-02-01T08:16:21.046Z,32.96
2018-02-01T08:18:48.618Z,34.02
2018-02-01T08:21:16.222Z,33.63
2018-02-01T08:23:43.794Z,34.37
2018-02-01T08:26:11.371Z,33.22
2018-02-01T08:28:38.983Z,33.85
2018-02-01T08:31:06.674Z,33.45
2018-02-01T08:33:34.251Z,33.14
2018-02-01T08:36:01.866Z,32.48
2018-02-01T08:38:29.475Z,33.11
2018-02-01T08:40:57.057Z,33.21
2018-02-01T08:43:24.699Z,32.65
2018-02-01T08:45:52.283Z,32.43
2018-02-01T08:48:19.865Z,31.04
2018-02-01T08:50:47.477Z,29.93
2018-02-01T08:53:15.027Z,29.50
2018-02-01T08:55:42.694Z,29.79
2018-02-01T08:58:10.886Z,28.52
2018-02-01T09:00:38.482Z,28.21
2018-02-01T09:03:06.052Z,27.46
2018-02-01T09:05:33.656Z,26.98
2018-02-01T09:08:01.400Z,27.41
2018-02-01T09:10:29.064Z,27.82
2018-02-01T09:12:56.724Z,28.04
2018-02-01T09:15:24.287Z,27.02
2018-02-01T09:17:51.873Z,27.17
2018-02-01T09:20:19.523Z,27.17
2018-02-01T09:22:47.184Z,26.43
2018-02-01T09:25:14.784Z,25.10
2018-02-01T09:27:42.470Z,24.51
2018-02-01T09:30:10.146Z,24.21
2018-02-01T09:32:37.711Z,23.64
2018-02-01T09:35:05.489Z,22.76
2018-02-01T09:37:33.056Z,22.66
2018-02-01T09:40:00.624Z,22.56
2018-02-01T09:42:28.238Z,22.82
2018-02-01T09:44:55.927Z,21.74
2018-02-01T09:47:23.488Z,21.79
2018-02-01T09:49:51.078Z,22.26
2018-02-01T09:52:18.926Z,21.90
2018-02-01T09:54:46.585Z,21.92
2018-02-01T09:57:14.434Z,21.90
2018-02-01T09:59:42.000Z,22.94
2018-02-01T10:02:09.772Z,22.93
2018-02-01T10:04:37.376Z,23.14
2018-02-01T10:07:05.093Z,22.34
2018-02-01T10:09:32.656Z,21.94
2018-02-01T10:12:00.420Z,21.62
2018-02-01T10:14:27.997Z,21.06
2018-02-01T10:16:55.562Z,20.80
2018-02-01T10:19:23.211Z,21.42
2018-02-01T10:21:50.858Z,19.97
2018-02-01T10:24:18.506Z,20.67
2018-02-01T10:26:46.111Z,20.26
2018-02-01T10:29:13.656Z,20.60
2018-02-01T10:31:41.207Z,20.69
2018-02-01T10:34:08.976Z,20.64
2018-02-01T10:36:36.514Z,20.60
2018-02-01T10:39:04.138Z,20.62
2018-02-01T10:41:31.720Z,21.28
2018-02-01T10:43:59.273Z,21.59
2018-02-01T10:46:26.838Z,23.03
2018-02-01T10:48:54.427Z,23.00
2018-02-01T10:51:21.962Z,23.87
2018-02-01T10:53:49.680Z,23.03
2018-02-01T10:56:17.331Z,23.22
2018-02-01T10:58:44.886Z,23.33
2018-02-01T11:01:12.484Z,23.35
2018-02-01T11:03:40.058Z,24.13
2018-02-01T11:06:07.608Z,24.07
2018-02-01T11:08:35.151Z,23.76
2018-02-01T11:11:02.728Z,21.38
2018-02-01T11:13:30.346Z,21.57
2018-02-01T11:15:57.922Z,22.68
2018-02-01T11:18:25.523Z,23.04
2018-02-01T11:20:53.095Z,24.35
2018-02-01T11:23:20.645Z,23.85
2018-02-01T11:25:48.266Z,23.54
2018-02-01T11:28:15.836Z,22.39
2018-02-01T11:30:43.572Z,20.85
2018-02-01T11:33:11.159Z,21.56
2018-02-01T11:35:38.702Z,21.96
2018-02-01T11:38:06.284Z,21.09
2018-02-01T11:40:33.889Z,21.34
2018-02-01T11:43:02.376Z,22.26
2018-02-01T11:45:29.921Z,23.95
2018-02-01T11:47:57.514Z,24.07
2018-02-01T11:50:25.063Z,24.04
2018-02-01T11:52:52.617Z,24.51
2018-02-01T11:55:20.201Z,24.31
2018-02-01T11:57:47.758Z,22.99
2018-02-01T12:00:15.299Z,22.96
2018-02-01T12:02:42.874Z,22.29
2018-02-01T12:05:10.433Z,24.68
2018-02-01T12:07:37.988Z,22.33
2018-02-01T12:10:05.555Z,21.68
2018-02-01T12:12:33.110Z,23.34
2018-02-01T12:15:00.695Z,22.63
2018-02-01T12:17:28.289Z,22.30
2018-02-01T12:19:55.856Z,21.90
2018-02-01T12:22:23.423Z,21.54
2018-02-01T12:24:51.033Z,22.03
2018-02-01T12:27:18.761Z,21.83
2018-02-01T12:29:46.368Z,22.80
2018-02-01T12:32:13.975Z,21.66
2018-02-01T12:34:41.542Z,20.28
2018-02-01T12:37:09.109Z,20.68
2018-02-01T12:39:36.691Z,21.34
2018-02-01T12:42:04.261Z,20.67
2018-02-01T12:44:32.007Z,21.44
2018-02-01T12:46:59.603Z,21.17
2018-02-01T12:49:27.156Z,19.91
2018-02-01T12:51:54.711Z,20.73
2018-02-01T12:54:22.283Z,20.74
2018-02-01T12:56:49.907Z,20.71
2018-02-01T12:59:17.480Z,19.59
2018-02-01T13:01:45.063Z,19.68
2018-02-01T13:04:12.599Z,20.40
2018-02-01T13:06:40.155Z,21.16
2018-02-01T13:09:07.765Z,20.77
2018-02-01T13:11:35.308Z,20.77
2018-02-01T13:14:02.855Z,20.36
2018-02-01T13:16:30.430Z,20.48
2018-02-01T13:18:57.989Z,20.08
2018-02-01T13:21:25.564Z,19.68
2018-02-01T13:23:53.176Z,19.76
2018-02-01T13:26:20.870Z,20.16
2018-02-01T13:28:48.440Z,19.84
2018-02-01T13:31:16.145Z,20.39
2018-02-01T13:33:43.720Z,20.20
2018-02-01T13:36:11.297Z,20.44
2018-02-01T13:38:38.924Z,20.37
2018-02-01T13:41:06.593Z,20.95
2018-02-01T13:43:34.172Z,21.68
2018-02-01T13:46:01.929Z,21.14
2018-02-01T13:48:29.787Z,21.17
2018-02-01T13:50:57.365Z,21.38
2018-02-01T13:53:24.972Z,22.31
2018-02-01T13:55:52.551Z,22.25
2018-02-01T13:58:20.143Z,23.90
2018-02-01T14:00:47.750Z,23.92
2018-02-01T14:03:15.342Z,24.54
2018-02-01T14:05:43.009Z,25.48
2018-02-01T14:08:10.669Z,25.99
2018-02-01T14:10:38.244Z,26.54
2018-02-01T14:13:05.811Z,27.97
2018-02-01T14:15:33.555Z,29.34
2018-02-01T14:18:01.513Z,30.16
2018-02-01T14:20:29.097Z,30.98
2018-02-01T14:22:56.711Z,32.23
2018-02-01T14:25:24.320Z,33.20
2018-02-01T14:27:51.894Z,33.72
2018-02-01T14:30:19.511Z,34.31
2018-02-01T14:32:47.287Z,34.49
2018-02-01T14:35:15.737Z,34.91
2018-02-01T14:37:43.344Z,35.65
2018-02-01T14:40:10.928Z,36.16
2018-02-01T14:42:38.505Z,36.60
2018-02-01T14:45:06.107Z,38.01
2018-02-01T14:47:33.893Z,38.45
2018-02-01T14:50:01.479Z,38.99
2018-02-01T14:52:29.080Z,39.59
2018-02-01T14:54:56.668Z,39.95
2018-02-01T14:57:24.333Z,40.33
2018-02-01T14:59:51.957Z,40.72
2018-02-01T15:02:19.660Z,41.15
2018-02-01T15:04:47.312Z,41.20
2018-02-01T15:07:14.985Z,41.43
2018-02-01T15:09:42.551Z,41.66
2018-02-01T15:12:10.130Z,43.13
2018-02-01T15:14:37.838Z,42.93
2018-02-01T15:17:05.413Z,43.36
2018-02-01T15:19:33.087Z,43.59
2018-02-01T15:22:00.925Z,45.37
2018-02-01T15:24:28.618Z,46.70
2018-02-01T15:26:56.223Z,47.33
2018-02-01T15:29:23.846Z,47.97
2018-02-01T15:31:51.597Z,48.87
2018-02-01T15:34:19.254Z,49.00
2018-02-01T15:36:46.881Z,50.09
2018-02-01T15:39:14.699Z,51.02
2018-02-01T15:41:42.464Z,51.53
2018-02-01T15:44:10.064Z,52.13
2018-02-01T15:46:37.831Z,52.61
2018-02-01T15:49:05.513Z,53.73
2018-02-01T15:51:33.155Z,53.97
2018-02-01T15:54:00.774Z,53.78
2018-02-01T15:56:28.427Z,54.71
2018-02-01T15:58:56.059Z,55.19
2018-02-01T16:01:23.727Z,54.89
2018-02-01T16:03:51.384Z,55.79
2018-02-01T16:06:19.022Z,56.12
2018-02-01T16:08:46.645Z,56.07
2018-02-01T16:11:14.257Z,55.99
2018-02-01T16:13:43.054Z,56.25
2018-02-01T16:16:11.130Z,56.33
2018-02-01T16:18:38.786Z,56.91
2018-02-01T16:21:06.396Z,56.34
2018-02-01T16:23:33.978Z,56.64
2018-02-01T16:26:01.743Z,56.57
2018-02-01T16:28:29.470Z,56.93
2018-02-01T16:30:57.550Z,57.60
2018-02-01T16:33:25.213Z,57.16
2018-02-01T16:35:52.812Z,57.76
2018-02-01T16:38:20.440Z,57.79
2018-02-01T16:40:48.012Z,59.06
2018-02-01T16:43:15.747Z,58.68
2018-02-01T16:45:43.385Z,58.97
2018-02-01T16:48:10.949Z,58.32
2018-02-01T16:50:38.511Z,59.25
2018-02-01T16:53:06.205Z,60.42
2018-02-01T16:55:33.768Z,59.98
2018-02-01T16:58:01.328Z,60.16
2018-02-01T17:00:29.055Z,61.05
2018-02-01T17:02:56.831Z,61.92
2018-02-01T17:05:24.495Z,61.84
2018-02-01T17:07:52.094Z,62.35
2018-02-01T17:10:19.654Z,63.13
2018-02-01T17:12:47.219Z,62.48
2018-02-01T17:15:14.818Z,62.07
2018-02-01T17:17:42.391Z,63.03
2018-02-01T17:20:09.979Z,62.82
2018-02-01T17:22:37.944Z,64.37
2018-02-01T17:25:05.509Z,65.98
2018-02-01T17:27:33.069Z,64.54
2018-02-01T17:30:00.671Z,64.28
2018-02-01T17:32:28.237Z,65.36
2018-02-01T17:34:55.832Z,65.14
2018-02-01T17:37:23.424Z,66.03
2018-02-01T17:39:51.170Z,65.92
2018-02-01T17:42:18.794Z,66.54
2018-02-01T17:44:46.413Z,66.43
2018-02-01T17:47:13.968Z,66.63
2018-02-01T17:49:41.523Z,66.97
2018-02-01T17:52:09.139Z,67.89
2018-02-01T17:54:36.710Z,67.24
2018-02-01T17:57:04.273Z,68.21
2018-02-01T17:59:31.859Z,67.99
2018-02-01T18:01:59.691Z,68.09
2018-02-01T18:04:27.238Z,68.49
2018-02-01T18:06:54.949Z,70.58
2018-02-01T18:09:22.492Z,69.92
2018-02-01T18:11:50.061Z,69.61
2018-02-01T18:14:17.777Z,69.86
2018-02-01T18:16:45.354Z,70.79
2018-02-01T18:19:12.949Z,71.10
2018-02-01T18:21:40.708Z,70.80
2018-02-01T18:24:08.254Z,69.67
2018-02-01T18:26:35.802Z,69.58
2018-02-01T18:29:06.908Z,70.26
2018-02-01T18:31:35.038Z,69.63
2018-02-01T18:34:02.630Z,71.15
2018-02-01T18:36:30.227Z,71.22
2018-02-01T18:38:57.997Z,70.58
2018-02-01T18:41:25.544Z,71.86
2018-02-01T18:43:53.159Z,71.36
2018-02-01T18:46:20.699Z,70.92
2018-02-01T18:48:48.360Z,70.80
2018-02-01T18:51:15.967Z,71.13
2018-02-01T18:53:43.691Z,71.69
2018-02-01T18:56:11.247Z,72.27
2018-02-01T18:58:38.971Z,73.13
2018-02-01T19:01:06.526Z,72.62
2018-02-01T19:03:34.101Z,73.05
2018-02-01T19:06:01.698Z,72.53
2018-02-01T19:08:29.265Z,74.21
2018-02-01T19:10:56.827Z,73.38
2018-02-01T19:13:24.595Z,72.56
2018-02-01T19:15:52.160Z,71.90
2018-02-01T19:18:19.898Z,71.86
2018-02-01T19:20:47.480Z,72.06
2018-02-01T19:23:15.226Z,72.06
2018-02-01T19:25:43.110Z,73.18
2018-02-01T19:28:10.717Z,73.55
2018-02-01T19:30:38.285Z,72.97
2018-02-01T19:33:05.852Z,73.94
2018-02-01T19:35:33.528Z,75.17
2018-02-01T19:38:01.103Z,74.43
2018-02-01T19:40:28.679Z,74.31
2018-02-01T19:42:56.287Z,73.75
2018-02-01T19:45:23.831Z,74.89
2018-02-01T19:47:51.430Z,75.23
2018-02-01T19:50:19.033Z,76.10
2018-02-01T19:52:46.600Z,76.54
2018-02-01T19:55:14.172Z,76.88
2018-02-01T19:57:41.759Z,77.60
2018-02-01T20:00:09.542Z,77.12
2018-02-01T20:02:37.114Z,76.63
2018-02-01T20:05:04.688Z,77.64
2018-02-01T20:07:32.237Z,78.53
2018-02-01T20:09:59.799Z,78.75
2018-02-01T20:12:27.468Z,79.16
2018-02-01T20:14:55.089Z,79.49
2018-02-01T20:17:22.678Z,80.12
2018-02-01T20:19:50.437Z,80.71
2018-02-01T20:22:18.093Z,80.69
2018-02-01T20:24:45.702Z,80.80
2018-02-01T20:27:13.280Z,80.86
2018-02-01T20:29:40.889Z,81.06
2018-02-01T20:32:08.458Z,81.46
2018-02-01T20:34:36.105Z,81.76
2018-02-01T20:37:03.662Z,81.72
2018-02-01T20:39:31.257Z,82.04
2018-02-01T20:41:59.685Z,82.05
2018-02-01T20:44:27.289Z,81.81
2018-02-01T20:46:54.850Z,81.58
2018-02-01T20:49:22.451Z,82.05
2018-02-01T20:51:50.009Z,82.14
2018-02-01T20:54:17.572Z,82.78
2018-02-01T20:56:45.155Z,82.63
2018-02-01T20:59:12.791Z,82.68
2018-02-01T21:01:40.485Z,82.78
2018-02-01T21:04:08.087Z,82.92
2018-02-01T21:06:35.644Z,83.07
2018-02-01T21:09:03.486Z,83.06
2018-02-01T21:11:31.073Z,83.17
2018-02-01T21:13:58.618Z,83.55
2018-02-01T21:16:26.160Z,83.61
2018-02-01T21:18:53.872Z,83.79
2018-02-01T21:21:21.444Z,84.09
2018-02-01T21:23:48.994Z,84.55
2018-02-01T21:26:16.707Z,84.53
2018-02-01T21:28:44.297Z,84.51
2018-02-01T21:31:11.934Z,84.54
2018-02-01T21:33:39.677Z,84.62
2018-02-01T21:36:07.232Z,84.69
2018-02-01T21:38:34.784Z,84.72
2018-02-01T21:41:02.364Z,84.51
2018-02-01T21:43:29.928Z,84.87
2018-02-01T21:45:57.480Z,84.93
2018-02-01T21:48:25.085Z,84.92
2018-02-01T21:50:52.650Z,84.86
2018-02-01T21:53:20.212Z,84.96
2018-02-01T21:55:47.834Z,85.05
2018-02-01T21:58:15.482Z,84.65
2018-02-01T22:00:43.070Z,84.44
2018-02-01T22:03:10.658Z,84.73
2018-02-01T22:05:38.229Z,85.06
2018-02-01T22:08:05.773Z,85.38
2018-02-01T22:10:33.348Z,85.64
2018-02-01T22:13:01.065Z,86.14
2018-02-01T22:15:28.621Z,85.87
2018-02-01T22:17:56.388Z,86.04
2018-02-01T22:20:23.949Z,86.07
2018-02-01T22:22:51.504Z,85.97
2018-02-01T22:25:19.114Z,85.95
2018-02-01T22:27:46.812Z,85.76
2018-02-01T22:30:14.369Z,85.86
2018-02-01T22:32:41.959Z,85.85
2018-02-01T22:35:09.511Z,85.49
2018-02-01T22:37:37.066Z,85.49
2018-02-01T22:40:04.719Z,85.74
2018-02-01T22:42:32.272Z,85.70
2018-02-01T22:44:59.889Z,85.56
2018-02-01T22:47:27.497Z,86.03
2018-02-01T22:49:55.055Z,86.15
2018-02-01T22:52:22.615Z,86.91
2018-02-01T22:54:50.294Z,87.03
2018-02-01T22:57:17.958Z,87.09
2018-02-01T22:59:45.604Z,87.03
2018-02-01T23:02:13.258Z,87.11
2018-02-01T23:04:40.801Z,86.83
2018-02-01T23:07:08.356Z,86.92
2018-02-01T23:09:35.981Z,86.81
2018-02-01T23:12:03.555Z,86.86
2018-02-01T23:14:31.115Z,86.65
2018-02-01T23:16:58.701Z,86.65
2018-02-01T23:19:26.261Z,86.72
2018-02-01T23:21:53.816Z,86.54
2018-02-01T23:24:21.425Z,86.23
2018-02-01T23:26:48.980Z,86.28
2018-02-01T23:29:16.545Z,86.35
2018-02-01T23:31:44.203Z,86.32
2018-02-01T23:34:11.751Z,86.45
2018-02-01T23:36:39.303Z,86.64
2018-02-01T23:39:06.965Z,87.02
2018-02-01T23:41:34.529Z,86.91
2018-02-01T23:44:02.099Z,87.16
2018-02-01T23:46:29.672Z,86.86
2018-02-01T23:48:57.231Z,86.82
2018-02-01T23:51:24.813Z,86.36
2018-02-01T23:53:52.425Z,85.68
2018-02-01T23:56:19.967Z,85.44
2018-02-01T23:58:47.658Z,85.43
